International Virtual Aviation Organisation

Russian Federation and Kazakhstan MCD

 

Карточка аэропорта UACC

Внимание!
Информация на этой странице в стадии наполнения.
Если вы не увидели какой-то информации, или заметили неточность - пожалуйста сообщите нам!
Спасибо!
Команда RU-STAFF
Название аэропортаАстана
Название аэропорта (англ.)Astana
Превышение1165 ft. (355.1 m.)
Координаты51°1.3319999999999', 71°28.014'
Высота перехода3790
Эшелон переходаFL60
Коды ответчика0601-0627, 7201-7217
Зона ОрВДАстана РПИ (UACC)
Данные METARUACC 191530Z 04007MPS CAVOK 23/14 Q1021 R04/0///70 NOSIG RMK QFE734/0979
Проноз погоды (TAF)UACC 191100Z 1912/2012 02005MPS 9999 SCT030CB BKN100 TX25/2010Z TN15/1923Z TEMPO 1912/1916 VRB16MPS 3100 TSRA SQ BKN030CB TEMPO 1918/2002 VRB02MPS 3100 BR SCT005 TEMPO 2006/2012 5000 -TSRA BKN030CB
NOTAMshow/hide NOTAM
AWOS   TABLE

Информация о ВПП

ВПП Длина ВПП (м.) Покрытие Курс ВПП Частота ILS
043500Асфальтобетон35109.5
223500Асфальтобетон215111.7

Диспетчерские позиции

Позывной Наименование органа УВД Частота
UACC_APPАстана Подход124.6
UACC_R_APPАстана Круг120.7
UACC_TWRАстана Вышка118.7
UACC_GNDАстана Руление119.6



Спутниковое изображение